createdAt,value
2022-10-23T00:01:46.513Z,100573.47
2022-10-23T00:04:21.703Z,100563.97
2022-10-23T00:06:49.295Z,100564.16
2022-10-23T00:09:20.551Z,100557.63
2022-10-23T00:11:48.121Z,100556.53
2022-10-23T00:14:18.581Z,100549.19
2022-10-23T00:16:48.528Z,100556.72
2022-10-23T00:19:15.533Z,100554.38
2022-10-23T00:21:41.984Z,100552.69
2022-10-23T00:26:38.383Z,100548.41
2022-10-23T00:29:11.050Z,100543.06
2022-10-23T00:31:38.412Z,100540.72
2022-10-23T00:34:08.234Z,100538.28
2022-10-23T00:36:37.862Z,100531.22
2022-10-23T00:39:06.637Z,100530.94
2022-10-23T00:41:36.309Z,100524.44
2022-10-23T00:44:30.520Z,100534.22
2022-10-23T00:46:58.642Z,100531.78
2022-10-23T00:49:25.641Z,100530.25
2022-10-23T00:51:55.770Z,100523.97
2022-10-23T00:54:27.266Z,100526.88
2022-10-23T00:56:57.611Z,100528.94
2022-10-23T00:59:24.112Z,100522.00
2022-10-23T01:01:58.667Z,100523.88
2022-10-23T01:04:27.625Z,100515.78
2022-10-23T01:07:07.129Z,100514.00
2022-10-23T01:09:45.565Z,100512.50
2022-10-23T01:12:36.598Z,100513.28
2022-10-23T01:15:39.712Z,100519.78
2022-10-23T01:18:28.159Z,100513.84
2022-10-23T01:21:01.127Z,100516.13
2022-10-23T01:23:49.448Z,100513.13
2022-10-23T01:26:42.652Z,100511.81
2022-10-23T01:29:19.681Z,100522.25
2022-10-23T01:31:56.137Z,100508.81
2022-10-23T01:34:29.711Z,100508.72
2022-10-23T01:37:08.105Z,100512.03
2022-10-23T01:39:44.862Z,100515.16
2022-10-23T01:42:20.193Z,100508.38
2022-10-23T01:44:54.143Z,100512.69
2022-10-23T01:47:31.936Z,100499.63
2022-10-23T01:50:09.577Z,100494.94
2022-10-23T01:52:39.450Z,100503.69
2022-10-23T01:55:11.963Z,100501.53
2022-10-23T01:57:43.200Z,100489.13
2022-10-23T02:00:13.619Z,100477.09
2022-10-23T02:02:42.381Z,100473.22
2022-10-23T02:05:20.358Z,100479.91
2022-10-23T02:07:46.959Z,100485.38
2022-10-23T02:10:14.403Z,100476.91
2022-10-23T02:12:58.805Z,100478.13
2022-10-23T02:15:31.329Z,100473.69
2022-10-23T02:17:57.721Z,100476.59
2022-10-23T02:20:41.101Z,100479.72
2022-10-23T02:23:16.716Z,100477.84
2022-10-23T02:25:54.233Z,100481.13
2022-10-23T02:28:26.210Z,100470.66
2022-10-23T02:30:55.171Z,100468.06
2022-10-23T02:33:26.083Z,100465.22
2022-10-23T02:35:52.625Z,100468.34
2022-10-23T02:38:42.636Z,100469.75
2022-10-23T02:41:18.254Z,100456.97
2022-10-23T02:44:03.523Z,100460.25
2022-10-23T02:46:51.925Z,100450.19
2022-10-23T02:49:47.743Z,100443.41
2022-10-23T02:52:24.340Z,100438.34
2022-10-23T02:55:23.840Z,100434.38
2022-10-23T02:58:05.433Z,100437.50
2022-10-23T03:00:36.589Z,100443.78
2022-10-23T03:03:11.648Z,100439.75
2022-10-23T03:05:40.719Z,100442.47
2022-10-23T03:08:11.714Z,100433.44
2022-10-23T03:10:38.606Z,100430.16
2022-10-23T03:13:09.490Z,100424.78
2022-10-23T03:15:35.906Z,100423.09
2022-10-23T03:18:05.408Z,100427.91
2022-10-23T03:20:34.109Z,100425.19
2022-10-23T03:23:00.541Z,100421.50
2022-10-23T03:25:27.474Z,100429.41
2022-10-23T03:27:53.934Z,100427.25
2022-10-23T03:30:20.351Z,100436.25
2022-10-23T03:32:46.743Z,100432.03
2022-10-23T03:35:13.297Z,100428.00
2022-10-23T03:37:39.951Z,100423.38
2022-10-23T03:40:07.157Z,100426.28
2022-10-23T03:42:33.615Z,100428.19
2022-10-23T03:45:00.054Z,100426.66
2022-10-23T03:47:26.559Z,100440.84
2022-10-23T03:49:53.044Z,100434.28
2022-10-23T03:52:19.476Z,100437.19
2022-10-23T03:54:45.944Z,100443.88
2022-10-23T03:57:12.730Z,100438.13
2022-10-23T03:59:39.156Z,100433.25
2022-10-23T04:02:05.636Z,100431.56
2022-10-23T04:04:32.073Z,100435.69
2022-10-23T04:06:58.622Z,100435.69
2022-10-23T04:09:25.402Z,100440.19
2022-10-23T04:11:51.947Z,100446.53
2022-10-23T04:14:18.363Z,100441.13
2022-10-23T04:16:44.866Z,100427.22
2022-10-23T04:19:13.697Z,100428.81
2022-10-23T04:21:40.063Z,100427.13
2022-10-23T04:24:06.814Z,100427.50
2022-10-23T04:26:33.219Z,100430.75
2022-10-23T04:28:59.703Z,100421.94
2022-10-23T04:31:26.329Z,100422.97
2022-10-23T04:33:52.886Z,100429.28
2022-10-23T04:36:19.482Z,100424.00
2022-10-23T04:38:45.959Z,100417.19
2022-10-23T04:41:12.377Z,100405.25
2022-10-23T04:43:41.161Z,100406.66
2022-10-23T04:46:07.831Z,100399.94
2022-10-23T04:48:34.276Z,100400.16
2022-10-23T04:51:04.045Z,100397.09
2022-10-23T04:53:31.007Z,100386.19
2022-10-23T04:55:59.471Z,100392.53
2022-10-23T04:58:29.609Z,100401.69
2022-10-23T05:00:56.405Z,100408.97
2022-10-23T05:03:26.433Z,100413.03
2022-10-23T05:05:55.380Z,100418.50
2022-10-23T05:08:22.766Z,100441.06
2022-10-23T05:10:50.184Z,100448.09
2022-10-23T05:13:20.416Z,100440.31
2022-10-23T05:15:50.998Z,100429.22
2022-10-23T05:18:23.482Z,100425.09
2022-10-23T05:20:53.997Z,100425.09
2022-10-23T05:23:24.518Z,100406.16
2022-10-23T05:25:50.880Z,100412.41
2022-10-23T05:28:19.586Z,100405.72
2022-10-23T05:30:46.147Z,100407.78
2022-10-23T05:33:14.865Z,100413.03
2022-10-23T05:35:44.169Z,100400.81
2022-10-23T05:38:20.757Z,100405.44
2022-10-23T05:40:47.403Z,100396.22
2022-10-23T05:43:13.975Z,100389.81
2022-10-23T05:45:40.421Z,100391.69
2022-10-23T05:48:16.730Z,100380.44
2022-10-23T05:50:48.970Z,100377.09
2022-10-23T05:53:15.401Z,100375.91
2022-10-23T05:55:41.883Z,100380.41
2022-10-23T05:58:10.700Z,100365.84
2022-10-23T06:00:37.098Z,100361.19
2022-10-23T06:03:03.648Z,100359.91
2022-10-23T06:05:30.559Z,100356.81
2022-10-23T06:07:58.838Z,100365.38
2022-10-23T06:10:26.272Z,100353.97
2022-10-23T06:12:52.715Z,100356.91
2022-10-23T06:15:19.201Z,100364.06
2022-10-23T06:17:45.901Z,100352.69
2022-10-23T06:20:13.025Z,100359.34
2022-10-23T06:22:39.527Z,100361.50
2022-10-23T06:25:06.626Z,100367.31
2022-10-23T06:27:33.083Z,100364.53
2022-10-23T06:29:59.455Z,100350.03
2022-10-23T06:32:25.844Z,100347.31
2022-10-23T06:34:52.239Z,100349.00
2022-10-23T06:37:18.709Z,100345.91
2022-10-23T06:39:47.136Z,100353.38
2022-10-23T06:42:16.188Z,100360.88
2022-10-23T06:44:47.294Z,100361.91
2022-10-23T06:47:14.508Z,100360.50
2022-10-23T06:49:41.105Z,100351.00
2022-10-23T06:52:14.263Z,100351.66
2022-10-23T06:54:54.098Z,100354.00
2022-10-23T06:57:20.454Z,100356.72
2022-10-23T06:59:46.899Z,100352.97
2022-10-23T07:02:13.405Z,100358.78
2022-10-23T07:04:41.130Z,100355.19
2022-10-23T07:07:07.657Z,100362.59
2022-10-23T07:09:36.253Z,100363.31
2022-10-23T07:12:02.665Z,100354.75
2022-10-23T07:14:32.070Z,100360.72
2022-10-23T07:16:59.148Z,100358.44
2022-10-23T07:19:25.539Z,100361.31
2022-10-23T07:21:52.128Z,100363.72
2022-10-23T07:24:23.244Z,100373.03
2022-10-23T07:29:17.026Z,100384.41
2022-10-23T07:31:45.985Z,100384.13
2022-10-23T07:34:12.337Z,100381.94
2022-10-23T07:36:41.171Z,100385.44
2022-10-23T07:39:07.555Z,100382.38
2022-10-23T07:41:36.443Z,100375.44
2022-10-23T07:44:02.936Z,100364.94
2022-10-23T07:46:29.411Z,100373.19
2022-10-23T07:48:56.046Z,100370.44
2022-10-23T07:51:22.465Z,100372.63
2022-10-23T07:53:48.920Z,100379.63
2022-10-23T07:56:22.135Z,100364.91
2022-10-23T07:58:49.029Z,100366.81
2022-10-23T08:01:19.028Z,100389.22
2022-10-23T08:03:47.766Z,100381.00
2022-10-23T08:06:14.293Z,100371.16
2022-10-23T08:08:41.049Z,100385.09
2022-10-23T08:11:10.257Z,100370.13
2022-10-23T08:13:36.645Z,100361.94
2022-10-23T08:16:03.273Z,100352.88
2022-10-23T08:18:29.736Z,100345.72
2022-10-23T08:21:01.371Z,100335.41
2022-10-23T08:23:32.897Z,100345.09
2022-10-23T08:26:06.317Z,100343.19
2022-10-23T08:28:33.292Z,100341.28
2022-10-23T08:31:08.366Z,100340.44
2022-10-23T08:33:35.157Z,100335.38
2022-10-23T08:36:01.531Z,100340.66
2022-10-23T08:38:28.124Z,100335.41
2022-10-23T08:40:54.693Z,100332.84
2022-10-23T08:43:41.653Z,100341.47
2022-10-23T08:46:15.250Z,100332.53
2022-10-23T08:48:48.971Z,100323.19
2022-10-23T08:51:31.965Z,100325.03
2022-10-23T08:54:42.467Z,100318.16
2022-10-23T08:57:15.654Z,100310.03
2022-10-23T08:59:52.784Z,100302.78
2022-10-23T09:02:19.224Z,100301.06
2022-10-23T09:04:48.417Z,100294.91
2022-10-23T09:07:36.205Z,100294.56
2022-10-23T09:10:24.295Z,100298.81
2022-10-23T09:12:50.844Z,100288.44
2022-10-23T09:15:28.310Z,100284.00
2022-10-23T09:18:08.074Z,100286.00
2022-10-23T09:20:35.553Z,100286.09
2022-10-23T09:23:07.865Z,100286.47
2022-10-23T09:25:38.177Z,100297.91
2022-10-23T09:28:07.212Z,100298.56
2022-10-23T09:30:37.218Z,100304.84
2022-10-23T09:33:14.475Z,100316.69
2022-10-23T09:35:56.693Z,100310.00
2022-10-23T09:38:47.746Z,100315.69
2022-10-23T09:41:28.662Z,100309.47
2022-10-23T09:44:07.485Z,100300.00
2022-10-23T09:46:41.357Z,100300.88
2022-10-23T09:49:22.146Z,100295.75
2022-10-23T09:51:59.313Z,100295.84
2022-10-23T09:54:26.029Z,100294.63
2022-10-23T09:56:54.667Z,100290.09
2022-10-23T09:59:26.697Z,100297.41
2022-10-23T10:01:59.500Z,100295.97
2022-10-23T10:04:34.122Z,100304.47
2022-10-23T10:07:02.330Z,100290.09
2022-10-23T10:09:28.907Z,100296.19
2022-10-23T10:12:03.178Z,100275.44
2022-10-23T10:14:48.019Z,100271.63
2022-10-23T10:17:43.907Z,100272.19
2022-10-23T10:20:25.566Z,100258.06
2022-10-23T10:23:14.213Z,100260.81
2022-10-23T10:25:54.731Z,100276.16
2022-10-23T10:28:26.228Z,100257.56
2022-10-23T10:31:08.809Z,100273.03
2022-10-23T10:34:01.542Z,100264.41
2022-10-23T10:36:52.366Z,100258.97
2022-10-23T10:39:24.525Z,100256.09
2022-10-23T10:42:20.523Z,100251.41
2022-10-23T10:45:13.154Z,100252.91
2022-10-23T10:48:16.880Z,100228.53
2022-10-23T10:50:52.422Z,100233.94
2022-10-23T10:53:26.574Z,100233.16
2022-10-23T10:55:55.225Z,100227.75
2022-10-23T10:58:30.854Z,100235.25
2022-10-23T11:01:02.102Z,100229.28
2022-10-23T11:03:39.175Z,100236.72
2022-10-23T11:06:13.209Z,100239.75
2022-10-23T11:08:56.171Z,100235.53
2022-10-23T11:11:40.505Z,100251.22
2022-10-23T11:14:15.616Z,100258.50
2022-10-23T11:16:47.876Z,100258.97
2022-10-23T11:19:27.505Z,100262.66
2022-10-23T11:22:04.425Z,100253.44
2022-10-23T11:24:49.110Z,100216.00
2022-10-23T11:27:47.601Z,100209.03
2022-10-23T11:30:23.356Z,100221.25
2022-10-23T11:33:13.847Z,100206.78
2022-10-23T11:35:52.142Z,100199.66
2022-10-23T11:38:26.226Z,100200.16
2022-10-23T11:40:58.480Z,100207.16
2022-10-23T11:43:30.717Z,100189.81
2022-10-23T11:45:58.054Z,100182.69
2022-10-23T11:48:40.714Z,100181.28
2022-10-23T11:51:27.177Z,100188.94
2022-10-23T11:53:53.714Z,100175.63
2022-10-23T11:56:20.157Z,100184.00
2022-10-23T11:58:58.708Z,100174.66
2022-10-23T12:01:41.417Z,100152.56
2022-10-23T12:04:13.689Z,100169.34
2022-10-23T12:06:43.668Z,100158.84
2022-10-23T12:09:26.502Z,100155.78
2022-10-23T12:12:10.382Z,100144.16
2022-10-23T12:14:45.163Z,100141.94
2022-10-23T12:17:23.757Z,100135.38
2022-10-23T12:19:53.899Z,100123.75
2022-10-23T12:22:25.327Z,100146.88
2022-10-23T12:25:00.649Z,100133.81
2022-10-23T12:27:57.317Z,100111.16
2022-10-23T12:30:30.667Z,100132.78
2022-10-23T12:33:08.021Z,100131.13
2022-10-23T12:36:06.661Z,100146.88
2022-10-23T12:38:36.355Z,100121.88
2022-10-23T12:41:25.716Z,100118.84
2022-10-23T12:44:12.715Z,100089.88
2022-10-23T12:46:48.649Z,100087.44
2022-10-23T12:49:17.850Z,100121.81
2022-10-23T12:51:44.345Z,100091.75
2022-10-23T12:54:21.170Z,100088.03
2022-10-23T12:56:48.111Z,100112.50
2022-10-23T12:59:18.944Z,100097.81
2022-10-23T13:01:49.157Z,100088.13
2022-10-23T13:04:27.903Z,100066.59
2022-10-23T13:06:57.256Z,100082.28
2022-10-23T13:09:43.004Z,100067.81
2022-10-23T13:12:25.738Z,100087.97
2022-10-23T13:14:57.590Z,100059.31
2022-10-23T13:17:43.988Z,100040.50
2022-10-23T13:20:38.035Z,100056.00
2022-10-23T13:23:19.464Z,100059.66
2022-10-23T13:25:57.340Z,100037.56
2022-10-23T13:28:27.061Z,100045.25
2022-10-23T13:30:59.227Z,100042.19
2022-10-23T13:33:31.655Z,100056.84
2022-10-23T13:36:07.142Z,100047.25
2022-10-23T13:38:36.596Z,100037.78
2022-10-23T13:41:06.033Z,100021.19
2022-10-23T13:43:34.013Z,100042.00
2022-10-23T13:46:01.264Z,100013.16
2022-10-23T13:48:28.199Z,100012.16
2022-10-23T13:51:08.580Z,100017.63
2022-10-23T13:53:37.274Z,100016.56
2022-10-23T13:56:06.191Z,100008.22
2022-10-23T13:58:32.636Z,99985.22
2022-10-23T14:00:59.228Z,99983.00
2022-10-23T14:03:25.657Z,99986.59
2022-10-23T14:05:52.194Z,99982.16
2022-10-23T14:08:19.277Z,99982.19
2022-10-23T14:10:46.115Z,99961.16
2022-10-23T14:13:12.707Z,99950.16
2022-10-23T14:15:41.567Z,99978.84
2022-10-23T14:18:08.519Z,99973.00
2022-10-23T14:20:35.243Z,99972.31
2022-10-23T14:23:01.648Z,99973.63
2022-10-23T14:25:28.113Z,99947.00
2022-10-23T14:27:57.198Z,99934.13
2022-10-23T14:30:26.212Z,99958.53
2022-10-23T14:32:52.669Z,99945.63
2022-10-23T14:35:21.471Z,99943.66
2022-10-23T14:37:47.934Z,99948.22
2022-10-23T14:40:14.503Z,99945.34
2022-10-23T14:42:43.121Z,99956.34
2022-10-23T14:45:10.089Z,99949.94
2022-10-23T14:47:36.571Z,99956.25
2022-10-23T14:50:06.311Z,99944.94
2022-10-23T14:52:32.762Z,99964.94
2022-10-23T14:55:00.609Z,99951.13
2022-10-23T14:57:27.041Z,99944.50
2022-10-23T14:59:53.411Z,99943.50
2022-10-23T15:02:19.883Z,99959.50
2022-10-23T15:04:46.352Z,99937.38
2022-10-23T15:07:12.732Z,99927.91
2022-10-23T15:09:39.667Z,99930.38
2022-10-23T15:12:07.415Z,99924.59
2022-10-23T15:14:34.823Z,99923.63
2022-10-23T15:17:01.641Z,99932.25
2022-10-23T15:19:28.004Z,99930.31
2022-10-23T15:21:54.365Z,99921.13
2022-10-23T15:24:23.054Z,99905.81
2022-10-23T15:26:52.012Z,99903.81
2022-10-23T15:29:19.429Z,99896.28
2022-10-23T15:31:54.057Z,99882.16
2022-10-23T15:34:29.851Z,99896.81
2022-10-23T15:36:57.589Z,99897.19
2022-10-23T15:39:33.572Z,99888.66
2022-10-23T15:42:00.436Z,99888.31
2022-10-23T15:44:28.777Z,99876.31
2022-10-23T15:46:58.703Z,99876.78
2022-10-23T15:49:26.817Z,99875.72
2022-10-23T15:51:53.345Z,99870.19
2022-10-23T15:54:20.965Z,99877.06
2022-10-23T15:56:53.459Z,99863.94
2022-10-23T15:59:22.576Z,99854.44
2022-10-23T16:01:49.633Z,99855.22
2022-10-23T16:04:17.121Z,99850.69
2022-10-23T16:06:49.101Z,99841.41
2022-10-23T16:09:15.687Z,99852.94
2022-10-23T16:11:44.040Z,99864.91
2022-10-23T16:14:15.948Z,99848.03
2022-10-23T16:16:42.451Z,99843.22
2022-10-23T16:19:10.900Z,99834.34
2022-10-23T16:21:37.335Z,99838.34
2022-10-23T16:24:07.601Z,99834.22
2022-10-23T16:26:34.969Z,99829.94
2022-10-23T16:29:05.342Z,99837.09
2022-10-23T16:31:32.161Z,99828.44
2022-10-23T16:34:03.211Z,99824.91
2022-10-23T16:36:30.195Z,99824.00
2022-10-23T16:38:56.870Z,99827.94
2022-10-23T16:41:23.441Z,99822.06
2022-10-23T16:43:50.059Z,99822.84
2022-10-23T16:46:20.976Z,99808.91
2022-10-23T16:48:48.222Z,99793.09
2022-10-23T16:51:24.642Z,99790.44
2022-10-23T16:53:52.609Z,99814.47
2022-10-23T16:56:25.937Z,99807.13
2022-10-23T17:01:33.077Z,99821.44
2022-10-23T17:04:00.143Z,99830.16
2022-10-23T17:06:32.127Z,99828.25
2022-10-23T17:08:59.827Z,99840.38
2022-10-23T17:11:30.598Z,99849.69
2022-10-23T17:14:04.247Z,99852.25
2022-10-23T17:16:38.143Z,99855.84
2022-10-23T17:19:16.138Z,99870.34
2022-10-23T17:21:48.141Z,99873.09
2022-10-23T17:24:14.588Z,99864.81
2022-10-23T17:26:41.632Z,99876.59
2022-10-23T17:29:09.861Z,99884.66
2022-10-23T17:31:41.862Z,99879.22
2022-10-23T17:34:12.524Z,99907.31
2022-10-23T17:36:43.121Z,99939.22
2022-10-23T17:39:14.418Z,99964.38
2022-10-23T17:41:41.504Z,100011.63
2022-10-23T17:44:11.465Z,100062.31
2022-10-23T17:46:38.556Z,100124.09
2022-10-23T17:49:08.005Z,100099.88
2022-10-23T17:51:35.694Z,100107.53
2022-10-23T17:54:08.649Z,100106.69
2022-10-23T17:56:38.208Z,100124.72
2022-10-23T17:59:07.859Z,100124.94
2022-10-23T18:01:34.614Z,100128.13
2022-10-23T18:04:02.947Z,100110.84
2022-10-23T18:06:35.797Z,100114.75
2022-10-23T18:09:04.840Z,100098.56
2022-10-23T18:11:35.127Z,100091.69
2022-10-23T18:14:01.918Z,100062.84
2022-10-23T18:16:28.544Z,100035.34
2022-10-23T18:18:55.843Z,100055.66
2022-10-23T18:21:24.163Z,100084.47
2022-10-23T18:23:51.550Z,100097.44
2022-10-23T18:26:19.369Z,100093.25
2022-10-23T18:28:49.577Z,100068.97
2022-10-23T18:31:19.885Z,100052.00
2022-10-23T18:33:47.287Z,100045.56
2022-10-23T18:36:21.637Z,100058.88
2022-10-23T18:38:50.248Z,100046.19
2022-10-23T18:41:22.723Z,100016.88
2022-10-23T18:43:58.644Z,100024.09
2022-10-23T18:46:25.141Z,100029.59
2022-10-23T18:48:57.601Z,100051.59
2022-10-23T18:51:27.607Z,100056.44
2022-10-23T18:53:54.216Z,100042.31
2022-10-23T18:56:24.444Z,100038.72
2022-10-23T18:58:55.890Z,100045.44
2022-10-23T19:01:23.873Z,100043.91
2022-10-23T19:03:51.362Z,100043.44
2022-10-23T19:06:18.807Z,100038.69
2022-10-23T19:08:45.930Z,100032.94
2022-10-23T19:11:21.797Z,100025.16
2022-10-23T19:13:48.463Z,100015.72
2022-10-23T19:16:18.317Z,100040.69
2022-10-23T19:18:53.638Z,100042.81
2022-10-23T19:21:25.213Z,100029.91
2022-10-23T19:23:52.455Z,100022.50
2022-10-23T19:26:19.001Z,100015.78
2022-10-23T19:28:48.866Z,100010.16
2022-10-23T19:31:15.952Z,100007.41
2022-10-23T19:33:42.392Z,100008.94
2022-10-23T19:36:13.830Z,100011.53
2022-10-23T19:38:41.436Z,100012.38
2022-10-23T19:41:07.848Z,100013.81
2022-10-23T19:43:38.319Z,100021.09
2022-10-23T19:46:09.340Z,100027.28
2022-10-23T19:48:42.280Z,100031.09
2022-10-23T19:51:09.416Z,100039.44
2022-10-23T19:53:36.544Z,100025.56
2022-10-23T19:56:07.774Z,100028.66
2022-10-23T19:58:34.204Z,100019.84
2022-10-23T20:01:10.237Z,100016.94
2022-10-23T20:03:37.658Z,100008.22
2022-10-23T20:06:04.540Z,100001.53
2022-10-23T20:08:32.785Z,100017.41
2022-10-23T20:11:01.586Z,100019.97
2022-10-23T20:13:31.211Z,100018.06
2022-10-23T20:15:57.572Z,100016.41
2022-10-23T20:18:24.158Z,100027.78
2022-10-23T20:20:50.548Z,100027.31
2022-10-23T20:23:17.148Z,100027.53
2022-10-23T20:25:43.718Z,100036.03
2022-10-23T20:28:12.884Z,100032.19
2022-10-23T20:30:41.850Z,100039.75
2022-10-23T20:33:08.281Z,100035.69
2022-10-23T20:35:43.567Z,100036.06
2022-10-23T20:38:10.156Z,100042.41
2022-10-23T20:40:39.326Z,100032.34
2022-10-23T20:43:05.742Z,100036.91
2022-10-23T20:45:32.247Z,100036.78
2022-10-23T20:47:58.645Z,100033.31
2022-10-23T20:50:25.127Z,100036.06
2022-10-23T20:52:51.747Z,100048.00
2022-10-23T20:55:19.019Z,100055.72
2022-10-23T20:57:46.245Z,100059.69
2022-10-23T21:00:13.368Z,100054.13
2022-10-23T21:02:39.974Z,100060.78
2022-10-23T21:05:06.767Z,100058.63
2022-10-23T21:07:35.690Z,100056.56
2022-10-23T21:10:04.607Z,100061.16
2022-10-23T21:12:31.399Z,100065.56
2022-10-23T21:14:58.044Z,100064.88
2022-10-23T21:17:24.443Z,100074.19
2022-10-23T21:19:50.850Z,100077.56
2022-10-23T21:22:17.430Z,100057.94
2022-10-23T21:24:46.124Z,100065.34
2022-10-23T21:27:12.577Z,100058.31
2022-10-23T21:29:43.776Z,100065.47
2022-10-23T21:32:10.107Z,100065.06
2022-10-23T21:34:36.795Z,100063.16
2022-10-23T21:37:13.158Z,100062.91
2022-10-23T21:39:41.261Z,100064.59
2022-10-23T21:42:08.389Z,100065.56
2022-10-23T21:44:39.715Z,100054.28
2022-10-23T21:47:06.565Z,100066.19
2022-10-23T21:49:33.037Z,100069.31
2022-10-23T21:51:59.408Z,100073.44
2022-10-23T21:54:28.166Z,100071.41
2022-10-23T21:56:56.096Z,100066.84
2022-10-23T21:59:27.604Z,100066.84
2022-10-23T22:02:01.961Z,100063.69
2022-10-23T22:04:28.401Z,100061.41
2022-10-23T22:06:54.840Z,100065.50
2022-10-23T22:09:22.320Z,100059.00
2022-10-23T22:11:50.145Z,100063.50
2022-10-23T22:14:18.735Z,100066.84
2022-10-23T22:16:45.310Z,100058.91
2022-10-23T22:19:13.735Z,100055.31
2022-10-23T22:21:40.845Z,100061.25
2022-10-23T22:24:10.812Z,100058.66
2022-10-23T22:26:43.428Z,100062.09
2022-10-23T22:29:13.653Z,100065.31
2022-10-23T22:31:44.161Z,100046.19
2022-10-23T22:34:26.787Z,100061.41
2022-10-23T22:37:00.502Z,100079.25
2022-10-23T22:39:26.953Z,100076.34
2022-10-23T22:41:53.976Z,100075.94
2022-10-23T22:44:20.399Z,100075.63
2022-10-23T22:46:51.403Z,100082.81
2022-10-23T22:49:17.885Z,100086.00
2022-10-23T22:51:44.288Z,100074.00
2022-10-23T22:54:15.676Z,100067.28
2022-10-23T22:56:42.454Z,100071.09
2022-10-23T22:59:11.177Z,100080.19
2022-10-23T23:01:43.514Z,100079.19
2022-10-23T23:04:36.759Z,100087.25
2022-10-23T23:07:02.339Z,100089.38
2022-10-23T23:09:31.154Z,100081.31
2022-10-23T23:12:02.443Z,100074.81
2022-10-23T23:14:28.870Z,100088.47
2022-10-23T23:16:55.245Z,100095.69
2022-10-23T23:19:22.870Z,100076.28
2022-10-23T23:21:50.268Z,100084.25
2022-10-23T23:24:16.679Z,100084.94
2022-10-23T23:26:43.096Z,100078.31
2022-10-23T23:29:09.545Z,100081.31
2022-10-23T23:31:35.941Z,100085.13
2022-10-23T23:34:04.664Z,100084.72
2022-10-23T23:36:31.071Z,100082.44
2022-10-23T23:38:58.378Z,100081.81
2022-10-23T23:41:25.831Z,100082.22
2022-10-23T23:43:57.049Z,100081.41
2022-10-23T23:46:24.416Z,100083.72
2022-10-23T23:48:50.940Z,100086.06
2022-10-23T23:51:20.649Z,100085.22
2022-10-23T23:53:47.811Z,100085.41
2022-10-23T23:56:14.690Z,100090.28
2022-10-23T23:58:43.372Z,100092.78
